createdAt,value
2023-03-02T06:19:32.710Z,-2.02
2023-03-02T06:29:32.885Z,-1.96
2023-03-02T06:39:32.853Z,-2.02
2023-03-02T06:49:32.938Z,-1.95
2023-03-02T06:59:32.744Z,-1.93
2023-03-02T07:09:32.848Z,-1.92
2023-03-02T07:19:32.710Z,-1.90
2023-03-02T07:29:32.799Z,-2.05
2023-03-02T07:39:32.818Z,-1.89
2023-03-02T07:49:32.997Z,-1.87
2023-03-02T07:59:32.861Z,-1.78
2023-03-02T08:09:33.028Z,-1.89
2023-03-02T08:19:32.880Z,-1.91
2023-03-02T08:29:32.949Z,-1.85
2023-03-02T08:39:33.028Z,-1.67
2023-03-02T08:49:32.930Z,-1.62
2023-03-02T08:59:32.960Z,-1.67
2023-03-02T09:09:33.023Z,-1.62
2023-03-02T09:19:33.036Z,-1.47
2023-03-02T09:29:32.929Z,-1.57
2023-03-02T09:39:33.006Z,-1.45
2023-03-02T09:49:32.961Z,-1.34
2023-03-02T09:59:33.016Z,-1.28
2023-03-02T10:09:33.085Z,-1.37
2023-03-02T10:19:32.932Z,-1.17
2023-03-02T10:29:33.119Z,-1.11
2023-03-02T10:39:33.077Z,-0.97
2023-03-02T10:49:32.929Z,-0.83
2023-03-02T10:59:32.965Z,-0.78
2023-03-02T11:09:33.109Z,-0.75
2023-03-02T11:19:32.918Z,-0.76
2023-03-02T11:29:33.064Z,-0.76
2023-03-02T11:39:33.155Z,-0.83
2023-03-02T11:49:32.828Z,-0.66
2023-03-02T11:59:33.052Z,-0.64
2023-03-02T12:09:33.283Z,-0.47
2023-03-02T12:19:33.004Z,-0.31
2023-03-02T12:29:32.859Z,-0.41
2023-03-02T12:39:32.923Z,-0.38
2023-03-02T12:49:33.097Z,-0.53
2023-03-02T12:59:33.052Z,-0.34
2023-03-02T13:09:32.922Z,-0.35
2023-03-02T13:19:33.208Z,0.06
2023-03-02T13:29:32.909Z,-0.12
2023-03-02T13:39:33.062Z,0.17
2023-03-02T13:49:32.933Z,-0.02
2023-03-02T13:59:33.128Z,-0.14
2023-03-02T14:09:33.043Z,-0.09
2023-03-02T14:19:33.048Z,0.09
2023-03-02T14:29:33.124Z,0.15
2023-03-02T14:39:33.256Z,0.16
2023-03-02T14:49:33.136Z,0.35
2023-03-02T14:59:33.115Z,0.41
2023-03-02T15:09:33.358Z,0.40
2023-03-02T15:19:33.017Z,0.51
2023-03-02T15:29:33.288Z,0.48
2023-03-02T15:39:33.163Z,0.45
2023-03-02T15:49:33.127Z,0.54
2023-03-02T15:59:33.154Z,0.39
2023-03-02T16:09:33.151Z,0.44
2023-03-02T16:19:33.219Z,0.49
2023-03-02T16:29:33.287Z,0.49
2023-03-02T16:39:33.380Z,0.52
2023-03-02T16:49:33.214Z,0.59
2023-03-02T16:59:33.174Z,0.61
2023-03-02T17:09:33.349Z,0.64
2023-03-02T17:19:33.206Z,0.59
2023-03-02T17:29:33.389Z,0.48
2023-03-02T17:39:33.432Z,0.33
2023-03-02T17:49:33.294Z,0.23
2023-03-02T17:59:33.146Z,0.15
2023-03-02T18:09:33.209Z,0.13
2023-03-02T18:19:33.227Z,0.12
2023-03-02T18:29:33.308Z,0.04
2023-03-02T18:39:33.134Z,-0.12
2023-03-02T18:49:33.240Z,-0.17
2023-03-02T18:59:33.429Z,-0.29
2023-03-02T19:09:33.500Z,-0.36
2023-03-02T19:19:33.700Z,-0.54
